sensor_id;sensor_type;location;lat;lon;timestamp;P1;durP1;ratioP1;P2;durP2;ratioP2
73266;SDS011;61495;53.400;7.608;2023-06-05T00:00:37;6.65;;;2.45;;
73266;SDS011;61495;53.400;7.608;2023-06-05T00:03:02;5.22;;;1.88;;
73266;SDS011;61495;53.400;7.608;2023-06-05T00:05:27;6.03;;;2.25;;
73266;SDS011;61495;53.400;7.608;2023-06-05T00:07:54;6.65;;;2.22;;
73266;SDS011;61495;53.400;7.608;2023-06-05T00:10:19;3.90;;;2.17;;
73266;SDS011;61495;53.400;7.608;2023-06-05T00:12:45;5.78;;;2.15;;
73266;SDS011;61495;53.400;7.608;2023-06-05T00:15:10;6.05;;;2.15;;
73266;SDS011;61495;53.400;7.608;2023-06-05T00:17:37;4.85;;;1.90;;
73266;SDS011;61495;53.400;7.608;2023-06-05T00:20:03;5.10;;;1.92;;
73266;SDS011;61495;53.400;7.608;2023-06-05T00:22:29;3.70;;;1.90;;
73266;SDS011;61495;53.400;7.608;2023-06-05T00:24:56;3.42;;;1.55;;
73266;SDS011;61495;53.400;7.608;2023-06-05T00:27:22;5.78;;;1.83;;
73266;SDS011;61495;53.400;7.608;2023-06-05T00:29:48;3.97;;;1.90;;
73266;SDS011;61495;53.400;7.608;2023-06-05T00:32:14;6.03;;;1.80;;
73266;SDS011;61495;53.400;7.608;2023-06-05T00:34:39;4.35;;;2.10;;
73266;SDS011;61495;53.400;7.608;2023-06-05T00:37:05;4.82;;;1.92;;
73266;SDS011;61495;53.400;7.608;2023-06-05T00:39:31;6.72;;;2.00;;
73266;SDS011;61495;53.400;7.608;2023-06-05T00:41:57;4.30;;;2.13;;
73266;SDS011;61495;53.400;7.608;2023-06-05T00:44:22;4.50;;;1.70;;
73266;SDS011;61495;53.400;7.608;2023-06-05T00:46:48;5.10;;;1.98;;
73266;SDS011;61495;53.400;7.608;2023-06-05T00:49:15;5.80;;;2.00;;
73266;SDS011;61495;53.400;7.608;2023-06-05T00:51:41;5.85;;;1.80;;
73266;SDS011;61495;53.400;7.608;2023-06-05T00:54:08;3.60;;;1.77;;
73266;SDS011;61495;53.400;7.608;2023-06-05T00:56:33;6.82;;;2.17;;
73266;SDS011;61495;53.400;7.608;2023-06-05T00:59:00;4.35;;;2.00;;
73266;SDS011;61495;53.400;7.608;2023-06-05T01:01:26;6.65;;;2.38;;
73266;SDS011;61495;53.400;7.608;2023-06-05T01:03:54;3.40;;;1.52;;
73266;SDS011;61495;53.400;7.608;2023-06-05T01:06:23;4.68;;;1.83;;
73266;SDS011;61495;53.400;7.608;2023-06-05T01:08:53;3.03;;;1.50;;
73266;SDS011;61495;53.400;7.608;2023-06-05T01:14:02;3.92;;;1.88;;
73266;SDS011;61495;53.400;7.608;2023-06-05T01:16:37;5.65;;;1.73;;
73266;SDS011;61495;53.400;7.608;2023-06-05T01:19:03;4.60;;;2.28;;
73266;SDS011;61495;53.400;7.608;2023-06-05T01:21:31;4.20;;;1.80;;
73266;SDS011;61495;53.400;7.608;2023-06-05T01:23:57;3.60;;;1.60;;
73266;SDS011;61495;53.400;7.608;2023-06-05T01:32:23;4.97;;;1.52;;
73266;SDS011;61495;53.400;7.608;2023-06-05T01:34:54;4.00;;;1.65;;
73266;SDS011;61495;53.400;7.608;2023-06-05T01:37:21;3.67;;;1.60;;
73266;SDS011;61495;53.400;7.608;2023-06-05T01:39:54;3.42;;;1.75;;
73266;SDS011;61495;53.400;7.608;2023-06-05T01:42:42;4.00;;;1.73;;
73266;SDS011;61495;53.400;7.608;2023-06-05T01:45:28;4.22;;;1.77;;
73266;SDS011;61495;53.400;7.608;2023-06-05T01:48:07;4.28;;;1.52;;
73266;SDS011;61495;53.400;7.608;2023-06-05T01:50:42;3.80;;;1.38;;
73266;SDS011;61495;53.400;7.608;2023-06-05T01:53:30;4.00;;;1.85;;
73266;SDS011;61495;53.400;7.608;2023-06-05T01:56:18;3.50;;;1.60;;
73266;SDS011;61495;53.400;7.608;2023-06-05T01:58:56;4.10;;;1.70;;
73266;SDS011;61495;53.400;7.608;2023-06-05T02:01:32;5.15;;;1.70;;
73266;SDS011;61495;53.400;7.608;2023-06-05T02:03:58;4.35;;;1.70;;
73266;SDS011;61495;53.400;7.608;2023-06-05T02:06:23;6.03;;;1.90;;
73266;SDS011;61495;53.400;7.608;2023-06-05T02:08:50;3.53;;;1.70;;
73266;SDS011;61495;53.400;7.608;2023-06-05T02:11:15;4.55;;;1.73;;
73266;SDS011;61495;53.400;7.608;2023-06-05T02:13:40;3.83;;;1.38;;
73266;SDS011;61495;53.400;7.608;2023-06-05T02:16:08;3.72;;;1.70;;
73266;SDS011;61495;53.400;7.608;2023-06-05T02:18:35;3.55;;;1.55;;
73266;SDS011;61495;53.400;7.608;2023-06-05T02:21:02;3.70;;;1.85;;
73266;SDS011;61495;53.400;7.608;2023-06-05T02:23:28;3.92;;;1.90;;
73266;SDS011;61495;53.400;7.608;2023-06-05T02:25:53;3.38;;;1.50;;
73266;SDS011;61495;53.400;7.608;2023-06-05T02:28:19;5.32;;;2.05;;
73266;SDS011;61495;53.400;7.608;2023-06-05T02:30:45;4.93;;;1.90;;
73266;SDS011;61495;53.400;7.608;2023-06-05T02:33:13;3.97;;;1.75;;
73266;SDS011;61495;53.400;7.608;2023-06-05T02:35:39;5.10;;;1.70;;
73266;SDS011;61495;53.400;7.608;2023-06-05T02:38:05;5.32;;;1.80;;
73266;SDS011;61495;53.400;7.608;2023-06-05T02:40:35;4.75;;;1.83;;
73266;SDS011;61495;53.400;7.608;2023-06-05T02:43:00;4.10;;;1.65;;
73266;SDS011;61495;53.400;7.608;2023-06-05T02:45:26;3.70;;;1.55;;
73266;SDS011;61495;53.400;7.608;2023-06-05T02:47:51;5.63;;;1.45;;
73266;SDS011;61495;53.400;7.608;2023-06-05T02:50:17;3.33;;;1.52;;
73266;SDS011;61495;53.400;7.608;2023-06-05T02:52:42;4.05;;;1.40;;
73266;SDS011;61495;53.400;7.608;2023-06-05T02:55:08;3.03;;;1.27;;
73266;SDS011;61495;53.400;7.608;2023-06-05T02:57:34;5.30;;;1.98;;
73266;SDS011;61495;53.400;7.608;2023-06-05T03:00:06;4.10;;;1.80;;
73266;SDS011;61495;53.400;7.608;2023-06-05T03:02:33;3.58;;;1.70;;
73266;SDS011;61495;53.400;7.608;2023-06-05T03:05:01;4.07;;;1.58;;
73266;SDS011;61495;53.400;7.608;2023-06-05T03:07:27;3.65;;;1.60;;
73266;SDS011;61495;53.400;7.608;2023-06-05T03:09:52;4.50;;;1.50;;
73266;SDS011;61495;53.400;7.608;2023-06-05T03:12:18;3.65;;;1.58;;
73266;SDS011;61495;53.400;7.608;2023-06-05T03:14:43;3.90;;;1.70;;
73266;SDS011;61495;53.400;7.608;2023-06-05T03:17:08;3.90;;;1.75;;
73266;SDS011;61495;53.400;7.608;2023-06-05T03:19:34;4.15;;;2.13;;
73266;SDS011;61495;53.400;7.608;2023-06-05T03:21:59;4.10;;;1.50;;
73266;SDS011;61495;53.400;7.608;2023-06-05T03:24:24;4.93;;;1.55;;
73266;SDS011;61495;53.400;7.608;2023-06-05T03:26:50;3.40;;;1.38;;
73266;SDS011;61495;53.400;7.608;2023-06-05T03:29:15;4.35;;;1.67;;
73266;SDS011;61495;53.400;7.608;2023-06-05T03:31:40;4.50;;;2.03;;
73266;SDS011;61495;53.400;7.608;2023-06-05T03:34:07;4.43;;;1.83;;
73266;SDS011;61495;53.400;7.608;2023-06-05T03:36:33;4.30;;;1.90;;
73266;SDS011;61495;53.400;7.608;2023-06-05T03:38:59;2.83;;;1.42;;
73266;SDS011;61495;53.400;7.608;2023-06-05T03:41:25;3.78;;;1.80;;
73266;SDS011;61495;53.400;7.608;2023-06-05T03:43:51;6.25;;;2.00;;
73266;SDS011;61495;53.400;7.608;2023-06-05T03:46:16;4.82;;;2.40;;
73266;SDS011;61495;53.400;7.608;2023-06-05T03:48:45;4.10;;;1.83;;
73266;SDS011;61495;53.400;7.608;2023-06-05T03:51:11;5.47;;;1.95;;
73266;SDS011;61495;53.400;7.608;2023-06-05T03:53:36;4.72;;;2.00;;
73266;SDS011;61495;53.400;7.608;2023-06-05T03:56:07;4.47;;;1.77;;
73266;SDS011;61495;53.400;7.608;2023-06-05T03:58:33;4.45;;;2.28;;
73266;SDS011;61495;53.400;7.608;2023-06-05T04:00:59;4.13;;;2.03;;
73266;SDS011;61495;53.400;7.608;2023-06-05T04:03:24;5.18;;;2.05;;
73266;SDS011;61495;53.400;7.608;2023-06-05T04:05:50;4.07;;;1.95;;
73266;SDS011;61495;53.400;7.608;2023-06-05T04:08:15;5.80;;;2.35;;
73266;SDS011;61495;53.400;7.608;2023-06-05T04:10:41;5.13;;;2.28;;
73266;SDS011;61495;53.400;7.608;2023-06-05T04:13:06;4.88;;;2.35;;
73266;SDS011;61495;53.400;7.608;2023-06-05T04:15:32;4.35;;;2.00;;
73266;SDS011;61495;53.400;7.608;2023-06-05T04:17:58;3.85;;;1.90;;
73266;SDS011;61495;53.400;7.608;2023-06-05T04:20:24;4.57;;;1.88;;
73266;SDS011;61495;53.400;7.608;2023-06-05T04:22:50;4.45;;;1.90;;
73266;SDS011;61495;53.400;7.608;2023-06-05T04:25:15;4.25;;;1.98;;
73266;SDS011;61495;53.400;7.608;2023-06-05T04:27:42;5.43;;;2.00;;
73266;SDS011;61495;53.400;7.608;2023-06-05T04:30:09;4.60;;;1.67;;
73266;SDS011;61495;53.400;7.608;2023-06-05T04:32:36;4.68;;;1.95;;
73266;SDS011;61495;53.400;7.608;2023-06-05T04:35:03;5.25;;;1.70;;
73266;SDS011;61495;53.400;7.608;2023-06-05T04:37:30;4.65;;;1.95;;
73266;SDS011;61495;53.400;7.608;2023-06-05T04:39:56;3.60;;;1.88;;
73266;SDS011;61495;53.400;7.608;2023-06-05T04:42:23;5.32;;;1.90;;
73266;SDS011;61495;53.400;7.608;2023-06-05T04:44:58;4.78;;;1.95;;
73266;SDS011;61495;53.400;7.608;2023-06-05T04:47:28;4.53;;;1.73;;
73266;SDS011;61495;53.400;7.608;2023-06-05T04:49:54;5.30;;;1.92;;
73266;SDS011;61495;53.400;7.608;2023-06-05T04:52:20;3.70;;;1.63;;
73266;SDS011;61495;53.400;7.608;2023-06-05T04:54:46;4.85;;;2.00;;
73266;SDS011;61495;53.400;7.608;2023-06-05T04:57:12;3.88;;;1.63;;
73266;SDS011;61495;53.400;7.608;2023-06-05T04:59:38;3.67;;;1.70;;
73266;SDS011;61495;53.400;7.608;2023-06-05T05:02:03;4.15;;;2.03;;
73266;SDS011;61495;53.400;7.608;2023-06-05T05:04:29;4.40;;;2.13;;
73266;SDS011;61495;53.400;7.608;2023-06-05T05:06:55;4.65;;;1.90;;
73266;SDS011;61495;53.400;7.608;2023-06-05T05:09:26;4.13;;;1.90;;
73266;SDS011;61495;53.400;7.608;2023-06-05T05:11:57;5.78;;;1.80;;
73266;SDS011;61495;53.400;7.608;2023-06-05T05:14:26;5.15;;;1.95;;
73266;SDS011;61495;53.400;7.608;2023-06-05T05:16:54;4.78;;;2.25;;
73266;SDS011;61495;53.400;7.608;2023-06-05T05:19:20;4.82;;;1.80;;
73266;SDS011;61495;53.400;7.608;2023-06-05T05:21:47;5.45;;;2.40;;
73266;SDS011;61495;53.400;7.608;2023-06-05T05:24:12;6.25;;;1.98;;
73266;SDS011;61495;53.400;7.608;2023-06-05T05:26:38;4.40;;;2.08;;
73266;SDS011;61495;53.400;7.608;2023-06-05T05:29:05;5.22;;;2.20;;
73266;SDS011;61495;53.400;7.608;2023-06-05T05:31:33;5.70;;;2.05;;
73266;SDS011;61495;53.400;7.608;2023-06-05T05:33:59;4.60;;;2.25;;
73266;SDS011;61495;53.400;7.608;2023-06-05T05:36:24;4.78;;;2.08;;
73266;SDS011;61495;53.400;7.608;2023-06-05T05:38:51;3.72;;;1.80;;
73266;SDS011;61495;53.400;7.608;2023-06-05T05:41:17;5.78;;;2.20;;
73266;SDS011;61495;53.400;7.608;2023-06-05T05:43:42;5.05;;;2.10;;
73266;SDS011;61495;53.400;7.608;2023-06-05T05:46:07;5.20;;;2.30;;
73266;SDS011;61495;53.400;7.608;2023-06-05T05:48:36;5.75;;;2.03;;
73266;SDS011;61495;53.400;7.608;2023-06-05T05:51:02;6.15;;;2.20;;
73266;SDS011;61495;53.400;7.608;2023-06-05T05:53:29;4.60;;;1.85;;
73266;SDS011;61495;53.400;7.608;2023-06-05T05:55:55;6.22;;;2.30;;
73266;SDS011;61495;53.400;7.608;2023-06-05T05:58:20;3.47;;;1.70;;
73266;SDS011;61495;53.400;7.608;2023-06-05T06:00:45;5.15;;;1.88;;
73266;SDS011;61495;53.400;7.608;2023-06-05T06:03:11;3.63;;;1.73;;
73266;SDS011;61495;53.400;7.608;2023-06-05T06:05:38;3.70;;;1.75;;
73266;SDS011;61495;53.400;7.608;2023-06-05T06:08:04;4.65;;;2.08;;
73266;SDS011;61495;53.400;7.608;2023-06-05T06:10:30;5.35;;;2.30;;
73266;SDS011;61495;53.400;7.608;2023-06-05T06:12:55;4.18;;;1.92;;
73266;SDS011;61495;53.400;7.608;2023-06-05T06:15:31;4.07;;;1.80;;
73266;SDS011;61495;53.400;7.608;2023-06-05T06:17:56;4.78;;;1.92;;
73266;SDS011;61495;53.400;7.608;2023-06-05T06:20:22;4.75;;;1.67;;
73266;SDS011;61495;53.400;7.608;2023-06-05T06:22:47;4.05;;;1.80;;
73266;SDS011;61495;53.400;7.608;2023-06-05T06:25:13;3.75;;;1.77;;
73266;SDS011;61495;53.400;7.608;2023-06-05T06:27:41;5.68;;;1.77;;
73266;SDS011;61495;53.400;7.608;2023-06-05T06:30:08;3.78;;;1.67;;
73266;SDS011;61495;53.400;7.608;2023-06-05T06:32:35;5.82;;;1.83;;
73266;SDS011;61495;53.400;7.608;2023-06-05T06:35:00;3.08;;;1.52;;
73266;SDS011;61495;53.400;7.608;2023-06-05T06:37:26;4.63;;;1.70;;
73266;SDS011;61495;53.400;7.608;2023-06-05T06:39:52;4.82;;;1.60;;
73266;SDS011;61495;53.400;7.608;2023-06-05T06:42:17;6.20;;;1.98;;
73266;SDS011;61495;53.400;7.608;2023-06-05T06:44:43;3.70;;;1.73;;
73266;SDS011;61495;53.400;7.608;2023-06-05T06:47:08;3.88;;;1.75;;
73266;SDS011;61495;53.400;7.608;2023-06-05T06:49:34;4.13;;;1.70;;
73266;SDS011;61495;53.400;7.608;2023-06-05T06:52:00;5.72;;;1.98;;
73266;SDS011;61495;53.400;7.608;2023-06-05T06:54:26;4.22;;;1.50;;
73266;SDS011;61495;53.400;7.608;2023-06-05T06:56:54;4.15;;;1.80;;
73266;SDS011;61495;53.400;7.608;2023-06-05T06:59:19;3.40;;;1.40;;
73266;SDS011;61495;53.400;7.608;2023-06-05T07:01:46;4.70;;;1.50;;
73266;SDS011;61495;53.400;7.608;2023-06-05T07:04:16;4.07;;;1.80;;
73266;SDS011;61495;53.400;7.608;2023-06-05T07:06:44;3.45;;;1.63;;
73266;SDS011;61495;53.400;7.608;2023-06-05T07:09:13;4.60;;;1.90;;
73266;SDS011;61495;53.400;7.608;2023-06-05T07:11:38;5.53;;;2.25;;
73266;SDS011;61495;53.400;7.608;2023-06-05T07:14:04;4.32;;;1.65;;
73266;SDS011;61495;53.400;7.608;2023-06-05T07:16:29;4.63;;;1.95;;
73266;SDS011;61495;53.400;7.608;2023-06-05T07:18:56;5.57;;;1.80;;
73266;SDS011;61495;53.400;7.608;2023-06-05T07:21:22;3.13;;;1.50;;
73266;SDS011;61495;53.400;7.608;2023-06-05T07:23:50;3.58;;;1.75;;
73266;SDS011;61495;53.400;7.608;2023-06-05T07:26:19;5.47;;;1.73;;
73266;SDS011;61495;53.400;7.608;2023-06-05T07:28:45;4.43;;;1.80;;
73266;SDS011;61495;53.400;7.608;2023-06-05T07:31:12;3.88;;;1.77;;
73266;SDS011;61495;53.400;7.608;2023-06-05T07:33:38;4.80;;;1.63;;
73266;SDS011;61495;53.400;7.608;2023-06-05T07:36:03;3.83;;;1.88;;
73266;SDS011;61495;53.400;7.608;2023-06-05T07:38:29;5.75;;;2.33;;
73266;SDS011;61495;53.400;7.608;2023-06-05T07:40:54;5.28;;;2.22;;
73266;SDS011;61495;53.400;7.608;2023-06-05T07:43:23;6.45;;;2.10;;
73266;SDS011;61495;53.400;7.608;2023-06-05T07:45:48;5.70;;;2.35;;
73266;SDS011;61495;53.400;7.608;2023-06-05T07:48:14;5.28;;;2.47;;
73266;SDS011;61495;53.400;7.608;2023-06-05T07:50:39;4.88;;;2.28;;
73266;SDS011;61495;53.400;7.608;2023-06-05T07:53:05;4.85;;;2.30;;
73266;SDS011;61495;53.400;7.608;2023-06-05T07:55:30;4.80;;;2.40;;
73266;SDS011;61495;53.400;7.608;2023-06-05T07:57:56;5.07;;;2.00;;
73266;SDS011;61495;53.400;7.608;2023-06-05T08:00:22;5.97;;;2.33;;
73266;SDS011;61495;53.400;7.608;2023-06-05T08:02:48;5.18;;;2.22;;
73266;SDS011;61495;53.400;7.608;2023-06-05T08:05:14;4.93;;;2.45;;
73266;SDS011;61495;53.400;7.608;2023-06-05T08:07:41;5.20;;;2.38;;
73266;SDS011;61495;53.400;7.608;2023-06-05T08:10:07;5.35;;;2.30;;
73266;SDS011;61495;53.400;7.608;2023-06-05T08:12:33;4.18;;;2.10;;
73266;SDS011;61495;53.400;7.608;2023-06-05T08:14:58;4.63;;;2.28;;
73266;SDS011;61495;53.400;7.608;2023-06-05T08:17:24;3.97;;;2.00;;
73266;SDS011;61495;53.400;7.608;2023-06-05T08:19:49;4.40;;;2.10;;
73266;SDS011;61495;53.400;7.608;2023-06-05T08:22:15;4.10;;;1.80;;
73266;SDS011;61495;53.400;7.608;2023-06-05T08:24:40;4.20;;;2.10;;
73266;SDS011;61495;53.400;7.608;2023-06-05T08:27:05;7.25;;;2.45;;
73266;SDS011;61495;53.400;7.608;2023-06-05T08:29:32;5.95;;;2.03;;
73266;SDS011;61495;53.400;7.608;2023-06-05T08:32:02;7.05;;;2.00;;
73266;SDS011;61495;53.400;7.608;2023-06-05T08:34:30;4.57;;;2.45;;
73266;SDS011;61495;53.400;7.608;2023-06-05T08:36:57;4.95;;;2.22;;
73266;SDS011;61495;53.400;7.608;2023-06-05T08:39:23;4.55;;;2.10;;
73266;SDS011;61495;53.400;7.608;2023-06-05T08:41:52;4.85;;;2.15;;
73266;SDS011;61495;53.400;7.608;2023-06-05T08:44:20;4.10;;;2.00;;
73266;SDS011;61495;53.400;7.608;2023-06-05T08:46:46;4.55;;;1.92;;
73266;SDS011;61495;53.400;7.608;2023-06-05T08:49:13;6.47;;;2.30;;
73266;SDS011;61495;53.400;7.608;2023-06-05T08:51:42;4.32;;;2.60;;
73266;SDS011;61495;53.400;7.608;2023-06-05T08:54:09;6.05;;;2.22;;
73266;SDS011;61495;53.400;7.608;2023-06-05T08:56:41;5.25;;;2.30;;
73266;SDS011;61495;53.400;7.608;2023-06-05T08:59:07;4.70;;;2.00;;
73266;SDS011;61495;53.400;7.608;2023-06-05T09:01:34;4.43;;;1.98;;
73266;SDS011;61495;53.400;7.608;2023-06-05T09:04:00;4.70;;;2.08;;
73266;SDS011;61495;53.400;7.608;2023-06-05T09:06:25;4.47;;;2.10;;
73266;SDS011;61495;53.400;7.608;2023-06-05T09:08:52;6.18;;;2.15;;
73266;SDS011;61495;53.400;7.608;2023-06-05T09:13:52;5.72;;;1.80;;
73266;SDS011;61495;53.400;7.608;2023-06-05T09:16:19;4.63;;;2.10;;
73266;SDS011;61495;53.400;7.608;2023-06-05T09:18:55;5.72;;;2.05;;
73266;SDS011;61495;53.400;7.608;2023-06-05T09:21:22;4.40;;;2.08;;
73266;SDS011;61495;53.400;7.608;2023-06-05T09:23:55;5.05;;;2.17;;
73266;SDS011;61495;53.400;7.608;2023-06-05T09:29:30;3.65;;;1.75;;
73266;SDS011;61495;53.400;7.608;2023-06-05T09:31:58;3.88;;;1.98;;
73266;SDS011;61495;53.400;7.608;2023-06-05T09:34:26;6.30;;;2.10;;
73266;SDS011;61495;53.400;7.608;2023-06-05T09:36:52;5.15;;;1.95;;
73266;SDS011;61495;53.400;7.608;2023-06-05T09:39:20;5.57;;;1.90;;
73266;SDS011;61495;53.400;7.608;2023-06-05T09:41:46;3.53;;;1.85;;
73266;SDS011;61495;53.400;7.608;2023-06-05T09:44:14;4.10;;;1.60;;
73266;SDS011;61495;53.400;7.608;2023-06-05T09:46:53;3.65;;;1.83;;
73266;SDS011;61495;53.400;7.608;2023-06-05T09:52:11;3.60;;;1.95;;
73266;SDS011;61495;53.400;7.608;2023-06-05T09:54:38;4.82;;;2.00;;
73266;SDS011;61495;53.400;7.608;2023-06-05T09:57:10;4.85;;;1.90;;
73266;SDS011;61495;53.400;7.608;2023-06-05T09:59:48;4.00;;;2.08;;
73266;SDS011;61495;53.400;7.608;2023-06-05T10:05:02;4.05;;;1.90;;
73266;SDS011;61495;53.400;7.608;2023-06-05T10:07:32;3.70;;;1.90;;
73266;SDS011;61495;53.400;7.608;2023-06-05T10:10:00;4.65;;;1.80;;
73266;SDS011;61495;53.400;7.608;2023-06-05T10:12:26;4.85;;;1.80;;
73266;SDS011;61495;53.400;7.608;2023-06-05T10:14:52;5.32;;;2.15;;
73266;SDS011;61495;53.400;7.608;2023-06-05T10:17:19;4.35;;;2.00;;
73266;SDS011;61495;53.400;7.608;2023-06-05T10:19:46;3.63;;;1.67;;
73266;SDS011;61495;53.400;7.608;2023-06-05T10:22:12;5.95;;;1.90;;
73266;SDS011;61495;53.400;7.608;2023-06-05T10:24:44;3.78;;;1.75;;
73266;SDS011;61495;53.400;7.608;2023-06-05T10:38:31;4.47;;;1.85;;
73266;SDS011;61495;53.400;7.608;2023-06-05T10:40:58;4.40;;;2.03;;
73266;SDS011;61495;53.400;7.608;2023-06-05T10:43:47;3.13;;;1.50;;
73266;SDS011;61495;53.400;7.608;2023-06-05T10:46:35;4.72;;;1.90;;
73266;SDS011;61495;53.400;7.608;2023-06-05T10:51:33;4.53;;;1.83;;
73266;SDS011;61495;53.400;7.608;2023-06-05T10:54:03;3.97;;;1.70;;
73266;SDS011;61495;53.400;7.608;2023-06-05T10:59:22;4.75;;;2.08;;
73266;SDS011;61495;53.400;7.608;2023-06-05T11:15:16;4.18;;;1.60;;
73266;SDS011;61495;53.400;7.608;2023-06-05T11:20:53;4.35;;;1.75;;
73266;SDS011;61495;53.400;7.608;2023-06-05T11:23:19;3.60;;;1.60;;
73266;SDS011;61495;53.400;7.608;2023-06-05T11:25:46;4.18;;;1.80;;
73266;SDS011;61495;53.400;7.608;2023-06-05T11:28:12;6.05;;;1.92;;
73266;SDS011;61495;53.400;7.608;2023-06-05T11:30:39;6.72;;;1.92;;
73266;SDS011;61495;53.400;7.608;2023-06-05T11:33:17;4.03;;;1.83;;
73266;SDS011;61495;53.400;7.608;2023-06-05T11:35:45;3.72;;;1.52;;
73266;SDS011;61495;53.400;7.608;2023-06-05T11:38:18;3.42;;;1.70;;
73266;SDS011;61495;53.400;7.608;2023-06-05T11:40:47;6.32;;;1.83;;
73266;SDS011;61495;53.400;7.608;2023-06-05T11:43:13;3.25;;;1.45;;
73266;SDS011;61495;53.400;7.608;2023-06-05T11:45:40;3.53;;;1.80;;
73266;SDS011;61495;53.400;7.608;2023-06-05T11:48:10;4.90;;;1.85;;
73266;SDS011;61495;53.400;7.608;2023-06-05T11:50:37;3.92;;;1.90;;
73266;SDS011;61495;53.400;7.608;2023-06-05T11:53:06;4.38;;;1.88;;
73266;SDS011;61495;53.400;7.608;2023-06-05T11:55:32;4.47;;;1.80;;
73266;SDS011;61495;53.400;7.608;2023-06-05T11:58:29;5.53;;;1.67;;
73266;SDS011;61495;53.400;7.608;2023-06-05T12:01:05;3.85;;;1.52;;
73266;SDS011;61495;53.400;7.608;2023-06-05T12:03:43;3.65;;;1.83;;
73266;SDS011;61495;53.400;7.608;2023-06-05T12:06:10;4.75;;;1.60;;
73266;SDS011;61495;53.400;7.608;2023-06-05T12:08:38;4.00;;;1.80;;
73266;SDS011;61495;53.400;7.608;2023-06-05T12:11:04;4.30;;;1.73;;
73266;SDS011;61495;53.400;7.608;2023-06-05T12:16:10;3.97;;;1.70;;
73266;SDS011;61495;53.400;7.608;2023-06-05T12:18:35;3.47;;;1.80;;
73266;SDS011;61495;53.400;7.608;2023-06-05T12:21:01;5.15;;;2.00;;
73266;SDS011;61495;53.400;7.608;2023-06-05T12:23:28;4.82;;;1.88;;
73266;SDS011;61495;53.400;7.608;2023-06-05T12:26:01;6.63;;;2.50;;
73266;SDS011;61495;53.400;7.608;2023-06-05T12:30:54;3.85;;;2.15;;
73266;SDS011;61495;53.400;7.608;2023-06-05T12:33:19;4.88;;;2.22;;
73266;SDS011;61495;53.400;7.608;2023-06-05T12:35:48;4.43;;;2.20;;
73266;SDS011;61495;53.400;7.608;2023-06-05T12:38:13;6.03;;;2.65;;
73266;SDS011;61495;53.400;7.608;2023-06-05T12:40:39;5.93;;;2.50;;
73266;SDS011;61495;53.400;7.608;2023-06-05T12:43:14;6.40;;;2.85;;
73266;SDS011;61495;53.400;7.608;2023-06-05T12:45:41;7.80;;;3.15;;
73266;SDS011;61495;53.400;7.608;2023-06-05T12:48:08;5.45;;;2.40;;
73266;SDS011;61495;53.400;7.608;2023-06-05T12:50:35;7.68;;;3.15;;
73266;SDS011;61495;53.400;7.608;2023-06-05T12:53:00;7.30;;;2.65;;
73266;SDS011;61495;53.400;7.608;2023-06-05T12:55:27;5.80;;;2.38;;
73266;SDS011;61495;53.400;7.608;2023-06-05T12:57:52;6.20;;;3.40;;
73266;SDS011;61495;53.400;7.608;2023-06-05T13:00:18;5.07;;;2.63;;
73266;SDS011;61495;53.400;7.608;2023-06-05T13:02:44;6.78;;;3.40;;
73266;SDS011;61495;53.400;7.608;2023-06-05T13:05:10;7.50;;;3.28;;
73266;SDS011;61495;53.400;7.608;2023-06-05T13:07:36;7.47;;;3.88;;
73266;SDS011;61495;53.400;7.608;2023-06-05T13:10:04;8.75;;;3.88;;
73266;SDS011;61495;53.400;7.608;2023-06-05T13:12:31;8.85;;;3.60;;
73266;SDS011;61495;53.400;7.608;2023-06-05T13:14:56;6.28;;;3.50;;
73266;SDS011;61495;53.400;7.608;2023-06-05T13:17:22;6.40;;;3.45;;
73266;SDS011;61495;53.400;7.608;2023-06-05T13:19:48;6.78;;;3.47;;
73266;SDS011;61495;53.400;7.608;2023-06-05T13:22:14;6.70;;;3.03;;
73266;SDS011;61495;53.400;7.608;2023-06-05T13:24:40;6.53;;;3.20;;
73266;SDS011;61495;53.400;7.608;2023-06-05T13:27:05;6.20;;;2.72;;
73266;SDS011;61495;53.400;7.608;2023-06-05T13:29:31;6.35;;;3.17;;
73266;SDS011;61495;53.400;7.608;2023-06-05T13:31:57;6.38;;;2.92;;
73266;SDS011;61495;53.400;7.608;2023-06-05T13:34:22;5.68;;;3.28;;
73266;SDS011;61495;53.400;7.608;2023-06-05T13:36:48;7.97;;;4.22;;
73266;SDS011;61495;53.400;7.608;2023-06-05T13:39:13;6.10;;;3.55;;
73266;SDS011;61495;53.400;7.608;2023-06-05T13:41:39;7.38;;;3.33;;
73266;SDS011;61495;53.400;7.608;2023-06-05T13:44:05;8.20;;;3.15;;
73266;SDS011;61495;53.400;7.608;2023-06-05T13:46:31;7.15;;;3.42;;
73266;SDS011;61495;53.400;7.608;2023-06-05T13:48:56;7.03;;;3.75;;
73266;SDS011;61495;53.400;7.608;2023-06-05T13:51:25;6.95;;;3.38;;
73266;SDS011;61495;53.400;7.608;2023-06-05T13:53:50;9.30;;;3.70;;
73266;SDS011;61495;53.400;7.608;2023-06-05T13:56:16;7.13;;;3.38;;
73266;SDS011;61495;53.400;7.608;2023-06-05T13:58:42;6.65;;;3.58;;
73266;SDS011;61495;53.400;7.608;2023-06-05T14:01:07;7.05;;;3.60;;
73266;SDS011;61495;53.400;7.608;2023-06-05T14:03:33;7.22;;;3.63;;
73266;SDS011;61495;53.400;7.608;2023-06-05T14:05:58;6.20;;;3.50;;
73266;SDS011;61495;53.400;7.608;2023-06-05T14:08:23;7.25;;;3.72;;
73266;SDS011;61495;53.400;7.608;2023-06-05T14:10:49;6.32;;;3.50;;
73266;SDS011;61495;53.400;7.608;2023-06-05T14:13:14;5.95;;;3.28;;
73266;SDS011;61495;53.400;7.608;2023-06-05T14:15:40;7.28;;;3.17;;
73266;SDS011;61495;53.400;7.608;2023-06-05T14:18:05;6.18;;;3.55;;
73266;SDS011;61495;53.400;7.608;2023-06-05T14:20:31;7.35;;;3.28;;
73266;SDS011;61495;53.400;7.608;2023-06-05T14:22:58;6.63;;;3.50;;
73266;SDS011;61495;53.400;7.608;2023-06-05T14:25:24;7.95;;;3.95;;
73266;SDS011;61495;53.400;7.608;2023-06-05T14:27:56;9.20;;;6.15;;
73266;SDS011;61495;53.400;7.608;2023-06-05T14:30:22;7.80;;;3.88;;
73266;SDS011;61495;53.400;7.608;2023-06-05T14:32:48;13.00;;;5.45;;
73266;SDS011;61495;53.400;7.608;2023-06-05T14:35:13;8.20;;;4.35;;
73266;SDS011;61495;53.400;7.608;2023-06-05T14:37:41;9.23;;;3.60;;
73266;SDS011;61495;53.400;7.608;2023-06-05T14:40:07;7.97;;;3.35;;
73266;SDS011;61495;53.400;7.608;2023-06-05T14:42:33;7.80;;;3.40;;
73266;SDS011;61495;53.400;7.608;2023-06-05T14:44:58;7.50;;;3.58;;
73266;SDS011;61495;53.400;7.608;2023-06-05T14:47:23;7.60;;;2.85;;
73266;SDS011;61495;53.400;7.608;2023-06-05T14:49:49;8.07;;;3.40;;
73266;SDS011;61495;53.400;7.608;2023-06-05T14:52:14;7.95;;;3.38;;
73266;SDS011;61495;53.400;7.608;2023-06-05T14:54:40;6.40;;;3.58;;
73266;SDS011;61495;53.400;7.608;2023-06-05T14:57:05;7.53;;;3.38;;
73266;SDS011;61495;53.400;7.608;2023-06-05T14:59:32;8.40;;;3.60;;
73266;SDS011;61495;53.400;7.608;2023-06-05T15:01:57;6.07;;;2.90;;
73266;SDS011;61495;53.400;7.608;2023-06-05T15:04:24;5.47;;;3.17;;
73266;SDS011;61495;53.400;7.608;2023-06-05T15:06:50;5.80;;;3.50;;
73266;SDS011;61495;53.400;7.608;2023-06-05T15:09:18;6.25;;;3.42;;
73266;SDS011;61495;53.400;7.608;2023-06-05T15:11:44;7.63;;;3.28;;
73266;SDS011;61495;53.400;7.608;2023-06-05T15:14:09;6.45;;;3.03;;
73266;SDS011;61495;53.400;7.608;2023-06-05T15:16:34;8.63;;;4.18;;
73266;SDS011;61495;53.400;7.608;2023-06-05T15:19:00;8.30;;;4.05;;
73266;SDS011;61495;53.400;7.608;2023-06-05T15:21:25;8.55;;;3.63;;
73266;SDS011;61495;53.400;7.608;2023-06-05T15:23:50;7.55;;;3.15;;
73266;SDS011;61495;53.400;7.608;2023-06-05T15:26:16;6.47;;;3.55;;
73266;SDS011;61495;53.400;7.608;2023-06-05T15:28:41;7.22;;;3.40;;
73266;SDS011;61495;53.400;7.608;2023-06-05T15:31:06;6.47;;;3.35;;
73266;SDS011;61495;53.400;7.608;2023-06-05T15:33:32;8.20;;;4.20;;
73266;SDS011;61495;53.400;7.608;2023-06-05T15:35:57;8.80;;;4.05;;
73266;SDS011;61495;53.400;7.608;2023-06-05T15:38:23;5.70;;;3.58;;
73266;SDS011;61495;53.400;7.608;2023-06-05T15:40:49;5.63;;;3.70;;
73266;SDS011;61495;53.400;7.608;2023-06-05T15:43:14;7.70;;;3.53;;
73266;SDS011;61495;53.400;7.608;2023-06-05T15:45:42;6.68;;;3.50;;